createdAt,value
2018-11-12T00:04:42.382Z,97180.23
2018-11-12T00:09:47.929Z,97176.02
2018-11-12T00:15:06.381Z,97178.16
2018-11-12T00:20:26.190Z,97178.64
2018-11-12T00:25:33.418Z,97179.77
2018-11-12T00:30:34.682Z,97180.31
2018-11-12T00:35:34.305Z,97166.88
2018-11-12T00:40:47.539Z,97172.21
2018-11-12T00:46:01.182Z,97173.77
2018-11-12T00:51:19.471Z,97169.41
2018-11-12T01:11:40.224Z,97129.16
2018-11-12T01:43:58.030Z,97143.34
2018-11-12T01:49:41.528Z,97148.77
2018-11-12T01:54:44.767Z,97132.50
2018-11-12T01:59:54.502Z,97127.27
2018-11-12T02:05:19.751Z,97145.85
2018-11-12T02:15:50.123Z,97120.25
2018-11-12T02:21:11.449Z,97125.38
2018-11-12T02:26:10.371Z,97124.06
2018-11-12T02:31:20.588Z,97116.05
2018-11-12T02:36:31.196Z,97124.66
2018-11-12T02:47:10.140Z,97122.52
2018-11-12T02:52:15.872Z,97125.59
2018-11-12T02:57:24.653Z,97122.80
2018-11-12T03:02:58.829Z,97127.55
2018-11-12T03:09:20.765Z,97120.91
2018-11-12T03:20:15.841Z,97119.50
2018-11-12T03:25:38.300Z,97116.81
2018-11-12T03:42:00.377Z,97135.47
2018-11-12T03:47:34.435Z,97127.92
2018-11-12T03:52:48.617Z,97133.52
2018-11-12T03:58:05.460Z,97132.58
2018-11-12T04:29:55.500Z,97153.66
2018-11-12T04:35:07.049Z,97145.33
2018-11-12T04:40:30.980Z,97136.54
2018-11-12T04:45:36.818Z,97137.27
2018-11-12T04:51:04.215Z,97137.75
2018-11-12T05:08:05.165Z,97137.82
2018-11-12T05:13:40.156Z,97116.20
2018-11-12T05:19:02.694Z,97124.03
2018-11-12T05:41:39.913Z,97101.85
2018-11-12T05:59:39.493Z,97104.67
2018-11-12T06:21:37.165Z,97107.45
2018-11-12T06:26:54.784Z,97108.17
2018-11-12T06:44:01.408Z,97113.11
2018-11-12T06:49:25.195Z,97110.42
2018-11-12T07:29:37.617Z,97123.97
2018-11-12T07:40:10.883Z,97122.59
2018-11-12T08:05:44.805Z,97142.80
2018-11-12T08:10:59.410Z,97152.64
2018-11-12T08:16:15.648Z,97140.70
2018-11-12T08:21:19.634Z,97151.70
2018-11-12T08:26:17.270Z,97134.06
2018-11-12T08:31:15.039Z,97121.14
2018-11-12T08:36:11.091Z,97164.26
2018-11-12T08:41:08.838Z,97119.42
2018-11-12T08:46:03.734Z,97145.48
2018-11-12T08:50:58.779Z,97181.61
2018-11-12T08:55:53.759Z,97205.06
2018-11-12T09:00:48.969Z,97161.13
2018-11-12T09:05:45.341Z,97175.51
2018-11-12T09:10:40.895Z,97232.06
2018-11-12T09:15:38.599Z,97251.02
2018-11-12T09:20:34.432Z,97192.67
2018-11-12T09:25:33.500Z,97193.64
2018-11-12T09:30:47.405Z,97190.88
2018-11-12T09:36:00.800Z,97226.41
2018-11-12T09:46:13.335Z,97268.29
2018-11-12T09:51:21.475Z,97262.15
2018-11-12T09:56:20.087Z,97283.91
2018-11-12T10:01:15.509Z,97304.05
2018-11-12T10:06:14.569Z,97283.34
2018-11-12T10:11:11.318Z,97299.19
2018-11-12T10:16:07.738Z,97269.17
2018-11-12T10:21:00.185Z,97254.69
2018-11-12T10:25:59.341Z,97257.56
2018-11-12T10:30:54.768Z,97258.69
2018-11-12T10:35:50.014Z,97252.52
2018-11-12T10:40:45.289Z,97299.24
2018-11-12T10:45:41.404Z,97280.53
2018-11-12T10:50:36.558Z,97283.34
2018-11-12T10:55:31.978Z,97277.46
2018-11-12T11:00:33.610Z,97297.06
2018-11-12T11:05:28.837Z,97274.19
2018-11-12T11:10:27.421Z,97257.34
2018-11-12T11:15:24.924Z,97262.48
2018-11-12T11:20:24.174Z,97289.34
2018-11-12T11:25:19.714Z,97271.79
2018-11-12T11:30:16.593Z,97253.53
2018-11-12T11:35:13.588Z,97252.98
2018-11-12T11:40:13.632Z,97255.31
2018-11-12T11:45:10.515Z,97264.53
2018-11-12T11:50:06.050Z,97258.21
2018-11-12T11:55:03.059Z,97262.16
2018-11-12T11:59:58.296Z,97262.97
2018-11-12T12:04:53.163Z,97251.59
2018-11-12T12:09:48.909Z,97247.19
2018-11-12T12:14:44.036Z,97254.86
2018-11-12T12:19:39.026Z,97265.09
2018-11-12T12:24:34.187Z,97277.52
2018-11-12T12:29:29.062Z,97274.56
2018-11-12T12:34:24.100Z,97272.39
2018-11-12T12:39:18.941Z,97279.21
2018-11-12T12:44:13.924Z,97265.80
2018-11-12T12:49:08.858Z,97276.00
2018-11-12T12:54:04.028Z,97270.28
2018-11-12T12:58:59.084Z,97286.53
2018-11-12T13:03:54.133Z,97286.08
2018-11-12T13:08:57.067Z,97273.16
2018-11-12T13:13:52.514Z,97276.39
2018-11-12T13:18:48.684Z,97279.59
2018-11-12T13:23:44.880Z,97278.05
2018-11-12T13:28:41.154Z,97277.81
2018-11-12T13:33:36.036Z,97284.84
2018-11-12T13:38:35.863Z,97294.66
2018-11-12T13:43:31.686Z,97293.94
2018-11-12T13:48:32.722Z,97306.03
2018-11-12T13:53:49.838Z,97319.05
2018-11-12T13:58:57.687Z,97318.13
2018-11-12T14:09:16.275Z,97313.44
2018-11-12T14:14:20.650Z,97327.55
2018-11-12T14:25:17.836Z,97329.69
2018-11-12T14:30:20.165Z,97335.93
2018-11-12T14:35:22.441Z,97330.54
2018-11-12T14:40:21.413Z,97340.45
2018-11-12T15:00:59.406Z,97346.69
2018-11-12T15:05:59.964Z,97351.34
2018-11-12T15:11:00.563Z,97353.30
2018-11-12T15:16:08.551Z,97350.45
2018-11-12T15:21:12.967Z,97357.57
2018-11-12T15:26:12.213Z,97353.52
2018-11-12T15:36:16.870Z,97363.87
2018-11-12T15:41:15.196Z,97373.62
2018-11-12T15:46:13.475Z,97379.61
2018-11-12T15:51:14.217Z,97390.96
2018-11-12T15:56:11.286Z,97398.61
2018-11-12T16:01:11.095Z,97395.10
2018-11-12T16:06:07.514Z,97406.48
2018-11-12T16:11:02.261Z,97409.60
2018-11-12T16:16:00.249Z,97411.21
2018-11-12T16:20:56.236Z,97413.94
2018-11-12T16:25:51.971Z,97417.14
2018-11-12T16:30:46.847Z,97424.86
2018-11-12T16:35:42.774Z,97423.91
2018-11-12T16:40:38.000Z,97435.59
2018-11-12T16:45:33.184Z,97450.15
2018-11-12T16:50:28.081Z,97451.09
2018-11-12T17:20:04.258Z,97479.44
2018-11-12T17:24:59.439Z,97485.83
2018-11-12T17:29:56.113Z,97489.75
2018-11-12T17:40:27.164Z,97497.22
2018-11-12T17:45:23.694Z,97498.83
2018-11-12T17:50:18.767Z,97501.87
2018-11-12T17:55:14.226Z,97506.56
2018-11-12T18:00:21.828Z,97504.79
2018-11-12T18:05:16.874Z,97513.65
2018-11-12T18:10:13.457Z,97517.03
2018-11-12T18:15:19.844Z,97533.64
2018-11-12T18:20:26.993Z,97534.48
2018-11-12T18:25:26.300Z,97541.84
2018-11-12T18:30:23.098Z,97544.63
2018-11-12T18:35:17.908Z,97543.89
2018-11-12T18:40:15.000Z,97545.77
2018-11-12T18:45:14.646Z,97545.36
2018-11-12T18:50:13.450Z,97539.92
2018-11-12T18:55:09.138Z,97540.45
2018-11-12T19:00:13.220Z,97545.68
2018-11-12T19:05:29.384Z,97552.12
2018-11-12T19:10:25.789Z,97551.19
2018-11-12T19:15:22.473Z,97549.73
2018-11-12T19:20:17.981Z,97550.41
2018-11-12T19:25:13.773Z,97548.88
2018-11-12T19:30:14.158Z,97550.51
2018-11-12T19:35:11.975Z,97545.33
2018-11-12T19:53:30.611Z,97561.91
2018-11-12T19:58:27.944Z,97565.41
2018-11-12T20:03:23.875Z,97554.50
2018-11-12T20:08:19.043Z,97559.47
2018-11-12T20:13:16.743Z,97558.30
2018-11-12T20:18:15.306Z,97559.22
2018-11-12T20:23:20.745Z,97555.03
2018-11-12T20:28:19.494Z,97563.02
2018-11-12T20:33:15.927Z,97560.50
2018-11-12T20:38:23.218Z,97558.84
2018-11-12T20:43:22.133Z,97555.93
2018-11-12T20:48:42.849Z,97554.53
2018-11-12T20:53:38.740Z,97552.26
2018-11-12T20:58:33.716Z,97553.09
2018-11-12T21:03:28.499Z,97552.62
2018-11-12T21:08:23.415Z,97551.09
2018-11-12T21:13:18.234Z,97555.37
2018-11-12T21:18:13.216Z,97556.45
2018-11-12T21:23:09.401Z,97554.91
2018-11-12T21:28:04.308Z,97552.06
2018-11-12T21:32:59.190Z,97561.66
2018-11-12T21:37:56.187Z,97559.44
2018-11-12T21:42:53.956Z,97556.94
2018-11-12T21:47:51.103Z,97555.80
2018-11-12T21:52:50.517Z,97561.92
2018-11-12T21:57:51.984Z,97561.02
2018-11-12T22:02:48.262Z,97560.24
2018-11-12T22:07:43.110Z,97566.98
2018-11-12T22:12:37.964Z,97565.88
2018-11-12T22:17:32.817Z,97561.09
2018-11-12T22:22:27.736Z,97569.45
2018-11-12T22:27:22.545Z,97556.02
2018-11-12T22:32:27.481Z,97575.73
2018-11-12T22:48:08.530Z,97562.59
2018-11-12T22:53:03.750Z,97562.05
2018-11-12T22:58:01.547Z,97555.05
2018-11-12T23:02:57.232Z,97561.02
2018-11-12T23:07:53.253Z,97552.53
2018-11-12T23:12:48.793Z,97551.41
2018-11-12T23:17:53.253Z,97548.54
2018-11-12T23:22:52.988Z,97547.54
2018-11-12T23:27:49.424Z,97541.38
2018-11-12T23:33:31.751Z,97546.12
2018-11-12T23:38:27.598Z,97548.38
2018-11-12T23:49:54.010Z,97545.23
